Terminal Aerodrome Forecast
Issued by NWS

Home | Current Version | Previous Version | Text Only | Print | Product List | Glossary On
Versions: 1 2 3 4 5 6 7 8 9 10 11 12 13 14 15 16 17 18 19 20 21 22 23 24 25 26 27 28
000
FTUS45 KPSR 041452 AAB
TAFPHX
TAF AMD
KPHX 041452Z 0415/0512 27008KT P6SM FEW080 SCT100 BKN220
     FM041700 23011KT P6SM VCSH SCT080 SCT120 BKN200
     FM042100 27012G20KT P6SM VCTS SCT045 BKN080CB
     FM050000 27010KT P6SM -TSRA BKN060CB
     FM050800 15008KT P6SM VCSH SCT050 BKN080=

USA.gov is the U.S. government's official web portal to all federal, state and local government web resources and services.